createdAt,value
2022-12-13T00:28:51.554Z,-0.80
2022-12-13T00:31:53.632Z,-3.00
2022-12-13T00:34:09.979Z,-3.00
2022-12-13T00:36:37.380Z,-3.00
2022-12-13T00:39:04.770Z,-3.00
2022-12-13T00:41:35.943Z,-3.00
2022-12-13T00:44:06.024Z,-3.00
2022-12-13T00:46:34.303Z,-3.00
2022-12-13T00:49:06.476Z,-3.00
2022-12-13T00:51:37.378Z,-3.10
2022-12-13T00:54:06.438Z,-3.10
2022-12-13T00:56:34.758Z,-3.10
2022-12-13T00:59:03.438Z,-3.10
2022-12-13T01:03:38.797Z,-3.10
2022-12-13T01:06:16.176Z,-3.10
2022-12-13T01:08:44.490Z,-3.20
2022-12-13T01:11:12.872Z,-3.20
2022-12-13T01:13:41.857Z,-3.20
2022-12-13T01:16:11.491Z,-3.20
2022-12-13T01:18:40.203Z,-3.20
2022-12-13T01:21:13.986Z,-3.20
2022-12-13T01:23:43.497Z,-3.20
2022-12-13T01:26:13.962Z,-3.20
2022-12-13T01:28:41.631Z,-3.20
2022-12-13T01:31:11.819Z,-3.20
2022-12-13T01:33:39.548Z,-3.20
2022-12-13T01:36:11.052Z,-3.20
2022-12-13T01:38:38.769Z,-3.20
2022-12-13T01:41:17.103Z,-3.20
2022-12-13T01:43:48.197Z,-3.30
2022-12-13T01:46:18.158Z,-3.30
2022-12-13T01:48:58.345Z,-3.30
2022-12-13T01:51:48.373Z,-3.40
2022-12-13T01:54:21.960Z,-3.40
2022-12-13T01:56:53.879Z,-3.40
2022-12-13T01:59:40.161Z,-3.40
2022-12-13T02:02:10.063Z,-3.50
2022-12-13T02:04:51.583Z,-3.50
2022-12-13T02:07:22.576Z,-3.50
2022-12-13T02:09:56.771Z,-3.50
2022-12-13T02:12:30.505Z,-3.50
2022-12-13T02:15:12.706Z,-3.50
2022-12-13T02:18:17.677Z,-3.50
2022-12-13T02:21:06.747Z,-3.50
2022-12-13T02:24:10.823Z,-3.50
2022-12-13T02:26:37.902Z,-3.60
2022-12-13T02:29:43.600Z,-3.60
2022-12-13T02:32:16.519Z,-3.60
2022-12-13T02:34:58.208Z,-3.60
2022-12-13T02:37:36.702Z,-3.60
2022-12-13T02:40:11.598Z,-3.60
2022-12-13T02:42:46.698Z,-3.60
2022-12-13T02:45:34.915Z,-3.60
2022-12-13T02:48:05.147Z,-3.60
2022-12-13T02:50:34.345Z,-3.70
2022-12-13T02:53:03.840Z,-3.70
2022-12-13T02:55:38.543Z,-3.70
2022-12-13T02:58:07.467Z,-3.70
2022-12-13T03:00:53.578Z,-3.70
2022-12-13T03:03:36.643Z,-3.70
2022-12-13T03:06:35.684Z,-3.70
2022-12-13T03:09:24.844Z,-3.80
2022-12-13T03:12:38.776Z,-3.80
2022-12-13T03:15:38.374Z,-3.80
2022-12-13T03:18:16.558Z,-3.80
2022-12-13T03:20:59.247Z,-3.80
2022-12-13T03:23:28.129Z,-3.80
2022-12-13T03:25:58.820Z,-3.80
2022-12-13T03:28:26.335Z,-3.80
2022-12-13T03:30:57.056Z,-3.80
2022-12-13T03:33:25.640Z,-3.80
2022-12-13T03:35:53.457Z,-3.80
2022-12-13T03:38:21.800Z,-3.80
2022-12-13T03:40:55.568Z,-3.80
2022-12-13T03:43:26.050Z,-3.80
2022-12-13T03:45:54.112Z,-3.80
2022-12-13T03:48:23.417Z,-3.80
2022-12-13T03:50:53.184Z,-3.80
2022-12-13T03:53:33.405Z,-3.70
2022-12-13T03:57:12.784Z,-3.70
2022-12-13T03:59:39.914Z,-3.70
2022-12-13T04:02:07.054Z,-3.70
2022-12-13T04:04:34.429Z,-3.70
2022-12-13T04:07:01.681Z,-3.60
2022-12-13T04:09:28.809Z,-3.60
2022-12-13T04:12:14.501Z,-3.60
2022-12-13T04:14:42.698Z,-3.60
2022-12-13T04:17:10.116Z,-3.60
2022-12-13T04:19:37.401Z,-3.60
2022-12-13T04:22:04.757Z,-3.60
2022-12-13T04:24:32.383Z,-3.60
2022-12-13T04:27:01.439Z,-3.60
2022-12-13T04:29:34.731Z,-3.60
2022-12-13T04:32:05.578Z,-3.60
2022-12-13T04:34:52.731Z,-3.60
2022-12-13T04:37:28.657Z,-3.60
2022-12-13T04:40:00.752Z,-3.60
2022-12-13T04:42:28.521Z,-3.70
2022-12-13T04:44:56.026Z,-3.70
2022-12-13T04:47:23.485Z,-3.60
2022-12-13T04:49:51.671Z,-3.70
2022-12-13T04:52:23.240Z,-3.70
2022-12-13T04:54:55.899Z,-3.70
2022-12-13T04:57:24.202Z,-3.70
2022-12-13T04:59:52.173Z,-3.70
2022-12-13T05:02:23.644Z,-3.70
2022-12-13T05:04:53.673Z,-3.70
2022-12-13T05:07:27.197Z,-3.70
2022-12-13T05:09:54.741Z,-3.70
2022-12-13T05:12:23.538Z,-3.70
2022-12-13T05:14:54.154Z,-3.70
2022-12-13T05:17:22.149Z,-3.70
2022-12-13T05:19:52.862Z,-3.70
2022-12-13T05:22:21.363Z,-3.70
2022-12-13T05:24:50.455Z,-3.70
2022-12-13T05:27:24.443Z,-3.70
2022-12-13T05:30:02.772Z,-3.70
2022-12-13T05:32:43.816Z,-3.70
2022-12-13T05:35:22.822Z,-3.70
2022-12-13T05:37:55.288Z,-3.80
2022-12-13T05:40:24.495Z,-3.80
2022-12-13T05:42:51.778Z,-3.80
2022-12-13T05:45:29.229Z,-3.80
2022-12-13T05:47:56.433Z,-3.80
2022-12-13T05:50:23.825Z,-3.90
2022-12-13T05:52:51.411Z,-3.80
2022-12-13T05:55:19.491Z,-3.80
2022-12-13T05:57:50.271Z,-3.90
2022-12-13T06:00:28.544Z,-3.80
2022-12-13T06:03:00.636Z,-3.90
2022-12-13T06:05:29.905Z,-3.90
2022-12-13T06:07:58.278Z,-3.80
2022-12-13T06:10:35.070Z,-3.90
2022-12-13T06:13:22.030Z,-3.90
2022-12-13T06:16:01.713Z,-3.80
2022-12-13T06:18:32.343Z,-3.90
2022-12-13T06:21:00.582Z,-3.90
2022-12-13T06:23:30.908Z,-3.90
2022-12-13T06:25:58.088Z,-3.90
2022-12-13T06:28:25.325Z,-3.90
2022-12-13T06:30:52.688Z,-3.80
2022-12-13T06:33:23.401Z,-3.90
2022-12-13T06:35:53.563Z,-3.90
2022-12-13T06:38:31.916Z,-3.90
2022-12-13T06:41:16.944Z,-3.90
2022-12-13T06:43:46.385Z,-3.90
2022-12-13T06:46:14.802Z,-3.90
2022-12-13T06:48:42.519Z,-3.90
2022-12-13T06:51:10.985Z,-3.90
2022-12-13T06:53:40.241Z,-3.90
2022-12-13T06:56:10.275Z,-4.00
2022-12-13T06:58:37.933Z,-3.90
2022-12-13T07:01:23.738Z,-4.00
2022-12-13T07:03:54.975Z,-4.00
2022-12-13T07:06:23.739Z,-4.00
2022-12-13T07:08:53.405Z,-4.00
2022-12-13T07:11:26.731Z,-4.00
2022-12-13T07:13:55.755Z,-4.00
2022-12-13T07:16:24.101Z,-4.00
2022-12-13T07:19:01.259Z,-4.00
2022-12-13T07:21:29.579Z,-4.00
2022-12-13T07:23:56.788Z,-4.00
2022-12-13T07:26:24.163Z,-4.00
2022-12-13T07:28:55.685Z,-4.00
2022-12-13T07:31:24.990Z,-3.90
2022-12-13T07:33:52.387Z,-4.00
2022-12-13T07:36:23.558Z,-3.90
2022-12-13T07:38:55.866Z,-3.90
2022-12-13T07:41:27.023Z,-3.90
2022-12-13T07:43:56.592Z,-3.90
2022-12-13T07:46:32.914Z,-3.90
2022-12-13T07:49:05.601Z,-3.90
2022-12-13T07:51:35.084Z,-3.90
2022-12-13T07:54:06.980Z,-3.90
2022-12-13T07:56:37.437Z,-4.00
2022-12-13T07:59:05.025Z,-3.90
2022-12-13T08:01:35.532Z,-3.90
2022-12-13T08:04:05.358Z,-3.90
2022-12-13T08:06:37.623Z,-3.90
2022-12-13T08:09:06.202Z,-3.80
2022-12-13T08:11:33.913Z,-3.80
2022-12-13T08:14:01.390Z,-3.80
2022-12-13T08:16:30.173Z,-3.80
2022-12-13T08:19:01.622Z,-3.80
2022-12-13T08:21:57.472Z,-3.70
2022-12-13T08:24:26.950Z,-3.70
2022-12-13T08:26:55.354Z,-3.60
2022-12-13T08:29:33.597Z,-3.60
2022-12-13T08:32:08.856Z,-3.60
2022-12-13T08:34:36.146Z,-3.50
2022-12-13T08:37:04.708Z,-3.50
2022-12-13T08:39:37.518Z,-3.40
2022-12-13T08:42:17.078Z,-3.40
2022-12-13T08:44:50.353Z,-3.30
2022-12-13T08:47:22.544Z,-3.30
2022-12-13T08:49:52.116Z,-3.30
2022-12-13T08:52:20.596Z,-3.30
2022-12-13T08:54:47.889Z,-3.20
2022-12-13T08:57:15.302Z,-3.20
2022-12-13T08:59:43.404Z,-3.10
2022-12-13T09:02:15.738Z,-3.10
2022-12-13T09:04:43.789Z,-3.00
2022-12-13T09:07:11.306Z,-2.90
2022-12-13T09:09:38.731Z,-2.80
2022-12-13T09:12:10.733Z,-2.80
2022-12-13T09:15:01.140Z,-2.60
2022-12-13T09:17:37.207Z,-2.50
2022-12-13T09:20:10.384Z,-2.40
2022-12-13T09:23:01.773Z,-2.40
2022-12-13T09:25:36.649Z,-2.30
2022-12-13T09:28:09.592Z,-2.20
2022-12-13T09:30:37.999Z,-2.10
2022-12-13T09:33:28.033Z,-2.00
2022-12-13T09:35:52.987Z,-1.90
2022-12-13T09:38:22.994Z,-1.70
2022-12-13T09:40:59.199Z,-1.50
2022-12-13T09:43:43.139Z,-1.30
2022-12-13T09:46:44.405Z,-1.10
2022-12-13T09:49:22.895Z,-0.90
2022-12-13T09:52:11.245Z,-0.80
2022-12-13T09:54:48.364Z,-0.70
2022-12-13T09:57:31.925Z,-0.70
2022-12-13T10:00:11.118Z,-0.80
2022-12-13T10:02:51.418Z,-0.80
2022-12-13T10:05:34.364Z,-0.80
2022-12-13T10:08:21.285Z,-0.80
2022-12-13T10:10:53.055Z,-0.70
2022-12-13T10:13:29.950Z,-0.70
2022-12-13T10:16:23.364Z,-0.70
2022-12-13T10:18:51.902Z,-0.60
2022-12-13T10:21:26.813Z,-0.60
2022-12-13T10:24:26.510Z,-0.60
2022-12-13T10:27:13.101Z,-0.60
2022-12-13T10:30:13.022Z,-0.40
2022-12-13T10:32:58.578Z,-0.40
2022-12-13T10:35:34.765Z,-0.30
2022-12-13T10:38:23.566Z,-0.20
2022-12-13T10:41:00.990Z,-0.20
2022-12-13T10:43:30.603Z,-0.10
2022-12-13T10:46:01.196Z,-0.10
2022-12-13T10:48:31.918Z,0.00
2022-12-13T10:51:08.587Z,0.00
2022-12-13T10:53:47.743Z,0.20
2022-12-13T10:56:22.896Z,0.30
2022-12-13T10:59:16.517Z,0.40
2022-12-13T11:01:44.991Z,0.60
2022-12-13T11:04:44.996Z,0.80
2022-12-13T11:07:32.902Z,0.90
2022-12-13T11:10:16.922Z,1.00
2022-12-13T11:12:45.057Z,1.10
2022-12-13T11:15:26.353Z,1.10
2022-12-13T11:17:56.895Z,1.00
2022-12-13T11:20:31.351Z,1.00
2022-12-13T11:23:07.648Z,1.10
2022-12-13T11:25:42.108Z,1.30
2022-12-13T11:28:34.078Z,1.50
2022-12-13T11:31:01.641Z,1.70
2022-12-13T11:34:01.319Z,2.00
2022-12-13T11:36:52.552Z,2.00
2022-12-13T11:39:43.728Z,2.00
2022-12-13T11:42:29.856Z,2.00
2022-12-13T11:45:03.666Z,1.90
2022-12-13T11:48:02.909Z,1.90
2022-12-13T11:50:46.479Z,2.00
2022-12-13T11:53:39.913Z,2.10
2022-12-13T11:56:13.993Z,2.10
2022-12-13T11:59:23.753Z,2.10
2022-12-13T12:02:06.468Z,2.20
2022-12-13T12:04:56.403Z,2.20
2022-12-13T12:08:05.135Z,2.10
2022-12-13T12:10:35.676Z,2.00
2022-12-13T12:13:24.566Z,2.00
2022-12-13T12:16:07.136Z,2.00
2022-12-13T12:18:34.582Z,2.00
2022-12-13T12:22:13.333Z,1.90
2022-12-13T12:24:41.684Z,1.90
2022-12-13T12:27:28.717Z,1.90
2022-12-13T12:30:04.976Z,1.90
2022-12-13T12:32:44.066Z,1.90
2022-12-13T12:35:14.153Z,1.90
2022-12-13T12:38:14.089Z,2.00
2022-12-13T12:41:15.105Z,2.30
2022-12-13T12:43:39.909Z,2.50
2022-12-13T12:46:58.939Z,2.90
2022-12-13T12:50:02.224Z,3.10
2022-12-13T12:52:37.341Z,3.30
2022-12-13T12:55:20.628Z,3.40
2022-12-13T12:57:53.754Z,3.50
2022-12-13T13:00:24.242Z,3.50
2022-12-13T13:03:01.227Z,3.60
2022-12-13T13:05:47.672Z,3.40
2022-12-13T13:08:32.129Z,3.40
2022-12-13T13:11:02.134Z,3.30
2022-12-13T13:13:46.994Z,3.20
2022-12-13T13:16:32.580Z,3.00
2022-12-13T13:19:25.457Z,2.90
2022-12-13T13:22:01.490Z,2.70
2022-12-13T13:24:32.803Z,2.70
2022-12-13T13:27:27.952Z,2.60
2022-12-13T13:30:25.370Z,2.40
2022-12-13T13:32:55.045Z,2.40
2022-12-13T13:35:36.195Z,2.20
2022-12-13T13:38:25.298Z,2.10
2022-12-13T13:40:52.683Z,2.00
2022-12-13T13:43:32.862Z,1.90
2022-12-13T13:46:10.949Z,1.90
2022-12-13T13:48:50.232Z,1.80
2022-12-13T13:52:16.665Z,1.80
2022-12-13T13:54:56.948Z,1.70
2022-12-13T13:58:11.379Z,1.70
2022-12-13T14:00:54.077Z,1.70
2022-12-13T14:03:44.161Z,1.70
2022-12-13T14:06:30.626Z,1.50
2022-12-13T14:09:12.970Z,1.50
2022-12-13T14:12:12.760Z,1.50
2022-12-13T14:15:07.924Z,1.50
2022-12-13T14:18:12.818Z,1.40
2022-12-13T14:21:05.091Z,1.40
2022-12-13T14:24:08.455Z,1.40
2022-12-13T14:26:51.499Z,1.40
2022-12-13T14:29:58.315Z,1.40
2022-12-13T14:32:28.920Z,1.30
2022-12-13T14:34:58.616Z,1.30
2022-12-13T14:37:38.661Z,1.20
2022-12-13T14:40:29.668Z,1.10
2022-12-13T14:42:57.024Z,1.10
2022-12-13T14:45:36.921Z,1.10
2022-12-13T14:48:12.676Z,1.00
2022-12-13T14:50:41.714Z,0.90
2022-12-13T14:53:29.316Z,0.90
2022-12-13T14:56:08.484Z,0.80
2022-12-13T14:58:39.836Z,0.80
2022-12-13T15:01:08.451Z,0.80
2022-12-13T15:03:36.198Z,0.70
2022-12-13T15:06:04.575Z,0.70
2022-12-13T15:08:34.128Z,0.60
2022-12-13T15:11:06.620Z,0.50
2022-12-13T15:13:42.823Z,0.50
2022-12-13T15:16:22.636Z,0.40
2022-12-13T15:19:14.520Z,0.40
2022-12-13T15:22:05.641Z,0.40
2022-12-13T15:24:47.420Z,0.30
2022-12-13T15:27:27.234Z,0.30
2022-12-13T15:29:54.847Z,0.20
2022-12-13T15:32:25.444Z,0.10
2022-12-13T15:34:52.919Z,0.00
2022-12-13T15:37:30.429Z,0.00
2022-12-13T15:40:07.559Z,0.00
2022-12-13T15:42:38.817Z,0.00
2022-12-13T15:45:20.583Z,-0.10
2022-12-13T15:47:53.309Z,-0.10
2022-12-13T15:50:45.343Z,-0.10
2022-12-13T15:53:27.034Z,-0.10
2022-12-13T15:55:54.688Z,-0.10
2022-12-13T15:58:31.688Z,-0.20
2022-12-13T16:01:05.432Z,-0.20
2022-12-13T16:03:44.820Z,-0.20
2022-12-13T16:06:22.469Z,-0.30
2022-12-13T16:08:57.125Z,-0.30
2022-12-13T16:11:49.270Z,-0.30
2022-12-13T16:14:34.425Z,-0.40
2022-12-13T16:17:08.229Z,-0.40
2022-12-13T16:19:36.381Z,-0.40
2022-12-13T16:22:08.636Z,-0.40
2022-12-13T16:24:37.217Z,-0.40
2022-12-13T16:27:08.460Z,-0.40
2022-12-13T16:29:37.514Z,-0.40
2022-12-13T16:32:13.848Z,-0.40
2022-12-13T16:34:41.241Z,-0.40
2022-12-13T16:37:25.456Z,-0.40
2022-12-13T16:39:56.176Z,-0.40
2022-12-13T16:42:26.420Z,-0.50
2022-12-13T16:45:40.687Z,-0.50
2022-12-13T16:47:49.259Z,-0.50
2022-12-13T16:50:20.441Z,-0.50
2022-12-13T16:52:49.772Z,-0.60
2022-12-13T16:55:17.116Z,-0.60
2022-12-13T16:57:55.804Z,-0.60
2022-12-13T17:00:23.955Z,-0.60
2022-12-13T17:02:51.977Z,-0.60
2022-12-13T17:05:20.770Z,-0.60
2022-12-13T17:07:47.991Z,-0.60
2022-12-13T17:10:17.396Z,-0.60
2022-12-13T17:12:45.141Z,-0.60
2022-12-13T17:15:14.121Z,-0.60
2022-12-13T17:17:43.301Z,-0.60
2022-12-13T17:20:15.194Z,-0.60
2022-12-13T17:22:44.077Z,-0.60
2022-12-13T17:25:12.920Z,-0.60
2022-12-13T17:27:41.770Z,-0.60
2022-12-13T17:30:16.202Z,-0.70
2022-12-13T17:32:44.282Z,-0.70
2022-12-13T17:35:18.059Z,-0.70
2022-12-13T17:37:46.569Z,-0.70
2022-12-13T17:40:15.192Z,-0.70
2022-12-13T17:42:42.903Z,-0.70
2022-12-13T17:45:10.447Z,-0.70
2022-12-13T17:47:39.409Z,-0.70
2022-12-13T17:50:09.807Z,-0.70
2022-12-13T17:52:38.219Z,-0.70
2022-12-13T17:55:07.016Z,-0.80
2022-12-13T17:57:34.371Z,-0.70
2022-12-13T18:00:02.575Z,-0.80
2022-12-13T18:02:40.209Z,-0.80
2022-12-13T18:05:10.951Z,-0.80
2022-12-13T18:07:40.859Z,-0.80
2022-12-13T18:10:09.674Z,-0.70
2022-12-13T18:12:39.662Z,-0.80
2022-12-13T18:15:07.317Z,-0.80
2022-12-13T18:18:08.935Z,-0.70
2022-12-13T18:20:22.415Z,-0.70
2022-12-13T18:22:53.124Z,-0.70
2022-12-13T18:25:23.447Z,-0.80
2022-12-13T18:27:59.026Z,-0.80
2022-12-13T18:30:28.272Z,-0.80
2022-12-13T18:32:55.554Z,-0.70
2022-12-13T18:35:23.542Z,-0.70
2022-12-13T18:37:52.674Z,-0.70
2022-12-13T18:40:20.739Z,-0.80
2022-12-13T18:42:50.108Z,-0.70
2022-12-13T18:45:21.043Z,-0.70
2022-12-13T18:48:06.020Z,-0.80
2022-12-13T18:50:34.594Z,-0.80
2022-12-13T18:53:02.161Z,-0.80
2022-12-13T18:55:29.993Z,-0.80
2022-12-13T18:57:57.213Z,-0.90
2022-12-13T19:00:25.121Z,-0.90
2022-12-13T19:02:52.886Z,-0.90
2022-12-13T19:05:25.238Z,-0.90
2022-12-13T19:07:52.382Z,-0.90
2022-12-13T19:10:26.597Z,-0.90
2022-12-13T19:12:53.893Z,-0.90
2022-12-13T19:15:21.598Z,-0.90
2022-12-13T19:17:50.954Z,-0.90
2022-12-13T19:20:19.743Z,-0.90
2022-12-13T19:22:47.044Z,-0.90
2022-12-13T19:25:14.840Z,-0.90
2022-12-13T19:27:44.878Z,-0.90
2022-12-13T19:30:12.297Z,-0.90
2022-12-13T19:32:40.316Z,-0.90
2022-12-13T19:35:08.718Z,-0.80
2022-12-13T19:37:45.655Z,-0.80
2022-12-13T19:40:13.087Z,-0.80
2022-12-13T19:42:44.760Z,-0.90
2022-12-13T19:45:16.559Z,-0.90
2022-12-13T19:47:43.652Z,-0.80
2022-12-13T19:50:17.284Z,-0.80
2022-12-13T19:52:44.507Z,-0.90
2022-12-13T19:55:12.239Z,-0.90
2022-12-13T19:57:39.424Z,-0.80
2022-12-13T20:00:07.453Z,-0.90
2022-12-13T20:02:35.344Z,-0.80
2022-12-13T20:05:02.808Z,-0.80
2022-12-13T20:07:30.267Z,-0.90
2022-12-13T20:09:58.160Z,-0.80
2022-12-13T20:12:26.399Z,-0.90
2022-12-13T20:14:54.580Z,-0.90
2022-12-13T20:17:22.142Z,-0.90
2022-12-13T20:19:52.959Z,-0.90
2022-12-13T20:22:21.127Z,-0.90
2022-12-13T20:24:50.782Z,-0.90
2022-12-13T20:27:19.187Z,-0.90
2022-12-13T20:29:50.075Z,-0.90
2022-12-13T20:32:21.211Z,-0.90
2022-12-13T20:34:54.709Z,-0.90
2022-12-13T20:37:24.719Z,-0.90
2022-12-13T20:39:51.823Z,-0.90
2022-12-13T20:42:22.126Z,-0.90
2022-12-13T20:44:50.423Z,-0.90
2022-12-13T20:47:19.152Z,-0.90
2022-12-13T20:49:48.332Z,-0.90
2022-12-13T20:52:18.720Z,-0.90
2022-12-13T20:54:46.353Z,-0.90
2022-12-13T20:57:13.745Z,-0.90
2022-12-13T20:59:41.537Z,-0.90
2022-12-13T21:02:10.911Z,-0.90
2022-12-13T21:04:39.049Z,-1.00
2022-12-13T21:07:12.921Z,-1.00
2022-12-13T21:09:41.762Z,-1.10
2022-12-13T21:12:10.079Z,-1.10
2022-12-13T21:14:40.669Z,-1.10
2022-12-13T21:17:10.991Z,-1.10
2022-12-13T21:19:41.878Z,-1.10
2022-12-13T21:22:19.520Z,-1.10
2022-12-13T21:24:46.670Z,-1.10
2022-12-13T21:27:13.930Z,-1.10
2022-12-13T21:29:41.168Z,-1.10
2022-12-13T21:32:08.539Z,-1.10
2022-12-13T21:34:35.788Z,-1.20
2022-12-13T21:37:03.087Z,-1.10
2022-12-13T21:39:31.219Z,-1.20
2022-12-13T21:41:58.536Z,-1.10
2022-12-13T21:44:25.585Z,-1.10
2022-12-13T21:49:40.174Z,-1.10
2022-12-13T21:52:07.450Z,-1.10
2022-12-13T21:54:34.669Z,-1.10
2022-12-13T21:57:21.111Z,-1.10
2022-12-13T21:59:50.311Z,-1.10
2022-12-13T22:02:19.986Z,-1.10
2022-12-13T22:04:55.963Z,-1.10
2022-12-13T22:07:27.004Z,-1.10
2022-12-13T22:09:56.590Z,-1.10
2022-12-13T22:12:26.500Z,-1.00
2022-12-13T22:14:54.919Z,-1.00
2022-12-13T22:17:28.212Z,-1.00
2022-12-13T22:19:58.433Z,-1.00
2022-12-13T22:22:28.056Z,-1.00
2022-12-13T22:24:55.154Z,-1.00
2022-12-13T22:27:25.546Z,-1.00
2022-12-13T22:29:57.238Z,-1.00
2022-12-13T22:32:27.124Z,-1.00
2022-12-13T22:34:54.707Z,-0.90
2022-12-13T22:37:23.855Z,-0.90
2022-12-13T22:39:51.583Z,-0.90
2022-12-13T22:42:20.680Z,-0.90
2022-12-13T22:44:51.215Z,-1.00
2022-12-13T22:47:19.211Z,-0.90
2022-12-13T22:49:48.503Z,-0.90
2022-12-13T22:52:17.255Z,-1.00
2022-12-13T22:54:44.553Z,-1.00
2022-12-13T22:57:11.848Z,-1.00
2022-12-13T22:59:39.412Z,-1.00
2022-12-13T23:02:06.678Z,-1.00
2022-12-13T23:04:33.902Z,-0.90
2022-12-13T23:07:02.800Z,-0.90
2022-12-13T23:09:30.861Z,-0.90
2022-12-13T23:12:16.687Z,-0.90
2022-12-13T23:14:46.769Z,-1.00
2022-12-13T23:17:15.146Z,-0.90
2022-12-13T23:19:48.923Z,-1.00
2022-12-13T23:22:23.680Z,-1.00
2022-12-13T23:24:53.017Z,-0.90
2022-12-13T23:27:23.028Z,-1.00
2022-12-13T23:29:51.661Z,-0.90
2022-12-13T23:32:23.335Z,-0.90
2022-12-13T23:34:51.517Z,-0.90
2022-12-13T23:37:19.461Z,-0.90
2022-12-13T23:39:47.071Z,-0.90
2022-12-13T23:42:15.877Z,-0.90
2022-12-13T23:44:43.064Z,-0.90
2022-12-13T23:47:10.248Z,-0.90
2022-12-13T23:49:38.096Z,-0.90
2022-12-13T23:52:05.275Z,-0.90
2022-12-13T23:54:33.575Z,-0.90
2022-12-13T23:57:00.653Z,-0.90
2022-12-13T23:59:28.251Z,-0.90
